DMSSP EDVK-ZZZZ

Flight info

Callsign DMSSP
Flight time N/A
Altitude 5500
Route RANIN GOESSENHEIM
Aircraft TL30/L-SDGRY/S

Departure

Time 2026-05-06 16:54
Airport Kassel Airport (EDVK)

Arrival

Time N/A
Airport ZZZZ
Time Latitude Longitude Altitude Speed Heading
2026-05-06 16:32 51.41730 9.39513 839 ft 0 kts 273°
2026-05-06 16:48 51.41751 9.39506 839 ft 7 kts 21°
2026-05-06 16:49 51.41790 9.39580 836 ft 10 kts 80°
2026-05-06 16:49 51.41777 9.39697 835 ft 11 kts 96°
2026-05-06 16:49 51.41813 9.39774 839 ft 11 kts
2026-05-06 16:49 51.41880 9.39800 840 ft 11 kts 51°
2026-05-06 16:50 51.41881 9.39967 838 ft 20 kts 91°
2026-05-06 16:50 51.41869 9.40196 836 ft 15 kts 91°
2026-05-06 16:50 51.41917 9.40259 835 ft 0 kts 334°
2026-05-06 16:53 51.41927 9.40249 835 ft 4 kts 318°
2026-05-06 16:53 51.41949 9.40197 835 ft 8 kts 302°
2026-05-06 16:53 51.41987 9.40097 835 ft 13 kts 301°
2026-05-06 16:54 51.42029 9.39947 836 ft 17 kts 289°
2026-05-06 16:54 51.42067 9.39444 950 ft 59 kts 272°
2026-05-06 16:54 51.42030 9.38830 1336 ft 59 kts 265°
2026-05-06 16:54 51.42012 9.38011 1508 ft 85 kts 268°
2026-05-06 16:55 51.41797 9.37074 1710 ft 98 kts 228°
2026-05-06 16:55 51.41185 9.36516 1906 ft 102 kts 206°
2026-05-06 16:55 51.40567 9.35940 2114 ft 105 kts 207°
2026-05-06 16:55 51.39928 9.35342 2321 ft 106 kts 208°
2026-05-06 16:56 51.39297 9.34749 2493 ft 107 kts 207°
2026-05-06 16:56 51.38658 9.33994 2496 ft 123 kts 234°
2026-05-06 16:56 51.38484 9.32655 2501 ft 125 kts 270°
2026-05-06 16:56 51.38356 9.31272 2503 ft 126 kts 262°
2026-05-06 16:57 51.38200 9.29914 2507 ft 124 kts 261°
2026-05-06 16:57 51.38052 9.28537 2508 ft 127 kts 262°
2026-05-06 16:57 51.37901 9.27143 2511 ft 127 kts 263°
2026-05-06 16:57 51.37785 9.25739 2502 ft 126 kts 264°
2026-05-06 16:58 51.37622 9.24427 2627 ft 115 kts 244°
2026-05-06 16:58 51.37002 9.23799 2791 ft 105 kts 176°
2026-05-06 16:58 51.36282 9.23779 2959 ft 102 kts 179°
2026-05-06 16:58 51.35582 9.23721 3136 ft 100 kts 178°
2026-05-06 16:59 51.34889 9.23663 3301 ft 99 kts 178°
2026-05-06 16:59 51.34217 9.23606 3482 ft 95 kts 176°
2026-05-06 16:59 51.33576 9.23540 3701 ft 91 kts 178°
2026-05-06 16:59 51.32961 9.23481 3922 ft 87 kts 178°
2026-05-06 17:00 51.32376 9.23427 4144 ft 83 kts 178°
2026-05-06 17:00 51.31801 9.23367 4366 ft 83 kts 178°
2026-05-06 17:00 51.31204 9.23312 4551 ft 88 kts 179°
2026-05-06 17:00 51.30571 9.23267 4742 ft 95 kts 178°
2026-05-06 17:01 51.29889 9.23235 4917 ft 101 kts 177°
2026-05-06 17:01 51.29171 9.23211 5097 ft 105 kts 177°
2026-05-06 17:01 51.28449 9.23199 5277 ft 102 kts 177°
2026-05-06 17:01 51.27752 9.23182 5457 ft 99 kts 178°
2026-05-06 17:02 51.27038 9.23179 5508 ft 107 kts 177°
2026-05-06 17:02 51.26275 9.23174 5513 ft 113 kts 178°
2026-05-06 17:02 51.25485 9.23172 5511 ft 113 kts 178°
2026-05-06 17:02 51.24701 9.23163 5509 ft 112 kts 178°
2026-05-06 17:03 51.23909 9.23198 5507 ft 116 kts 175°
2026-05-06 17:03 51.23110 9.23265 5505 ft 113 kts 175°
2026-05-06 17:03 51.22327 9.23331 5505 ft 113 kts 175°
2026-05-06 17:03 51.21553 9.23396 5496 ft 109 kts 174°
2026-05-06 17:04 51.20803 9.23467 5497 ft 108 kts 175°
2026-05-06 17:04 51.20057 9.23543 5493 ft 107 kts 174°
2026-05-06 17:04 51.19312 9.23614 5495 ft 107 kts 175°
2026-05-06 17:04 51.18569 9.23686 5497 ft 107 kts 175°
2026-05-06 17:05 51.17824 9.23757 5495 ft 108 kts 175°
2026-05-06 17:05 51.17077 9.23833 5497 ft 108 kts 174°
2026-05-06 17:05 51.16330 9.23904 5496 ft 108 kts 175°
2026-05-06 17:05 51.15587 9.23975 5494 ft 106 kts 174°
2026-05-06 17:06 51.14844 9.24050 5497 ft 108 kts 174°
2026-05-06 17:06 51.14239 9.24617 5494 ft 107 kts 121°
2026-05-06 17:06 51.13936 9.25718 5495 ft 107 kts 116°
2026-05-06 17:06 51.13445 9.26554 5491 ft 106 kts 148°
2026-05-06 17:07 51.12823 9.27199 5494 ft 107 kts 146°
2026-05-06 17:07 51.12206 9.27870 5499 ft 108 kts 146°
2026-05-06 17:07 51.11582 9.28546 5499 ft 109 kts 146°
2026-05-06 17:07 51.10953 9.29232 5499 ft 110 kts 146°
2026-05-06 17:08 51.10325 9.29916 5501 ft 109 kts 148°
2026-05-06 17:08 51.09609 9.30268 5501 ft 108 kts 168°
2026-05-06 17:08 51.08900 9.30626 5499 ft 107 kts 150°
2026-05-06 17:08 51.08216 9.31066 5494 ft 107 kts 175°
2026-05-06 17:09 51.07475 9.30955 5497 ft 107 kts 185°
2026-05-06 17:09 51.06732 9.30827 5497 ft 108 kts 185°
2026-05-06 17:09 51.05986 9.30676 5498 ft 108 kts 186°
2026-05-06 17:09 51.05241 9.30514 5497 ft 108 kts 186°
2026-05-06 17:10 51.04497 9.30344 5500 ft 108 kts 187°
2026-05-06 17:10 51.03752 9.30171 5501 ft 108 kts 187°
2026-05-06 17:10 51.03004 9.29997 5503 ft 109 kts 187°
2026-05-06 17:10 51.02255 9.29822 5502 ft 109 kts 187°
2026-05-06 17:11 51.01505 9.29648 5505 ft 109 kts 187°
2026-05-06 17:11 51.00754 9.29472 5504 ft 109 kts 187°
2026-05-06 17:11 51.00002 9.29296 5504 ft 109 kts 188°
2026-05-06 17:11 50.99251 9.29120 5504 ft 109 kts 187°
2026-05-06 17:12 50.98506 9.28946 5504 ft 108 kts 188°
2026-05-06 17:12 50.97761 9.28772 5504 ft 108 kts 188°
2026-05-06 17:12 50.97026 9.28602 5504 ft 108 kts 188°
2026-05-06 17:12 50.96268 9.28426 5508 ft 111 kts 188°
2026-05-06 17:13 50.95484 9.28244 5508 ft 117 kts 188°
2026-05-06 17:13 50.94673 9.28050 5507 ft 119 kts 189°
2026-05-06 17:13 50.93854 9.27859 5500 ft 118 kts 188°
2026-05-06 17:13 50.93061 9.27800 5492 ft 113 kts 167°
2026-05-06 17:14 50.92348 9.28229 5495 ft 110 kts 161°
2026-05-06 17:14 50.91624 9.28623 5489 ft 109 kts 162°
2026-05-06 17:14 50.90907 9.29017 5494 ft 109 kts 162°
2026-05-06 17:14 50.90193 9.29411 5493 ft 109 kts 162°
2026-05-06 17:15 50.89476 9.29804 5496 ft 109 kts 162°
2026-05-06 17:15 50.88757 9.30200 5491 ft 109 kts 162°
2026-05-06 17:15 50.88040 9.30596 5492 ft 109 kts 162°
2026-05-06 17:15 50.87320 9.30991 5495 ft 109 kts 162°
2026-05-06 17:16 50.86604 9.31385 5483 ft 109 kts 162°
2026-05-06 17:16 50.85890 9.31779 5487 ft 110 kts 162°
2026-05-06 17:16 50.85159 9.32178 5495 ft 111 kts 162°
2026-05-06 17:16 50.84438 9.32576 5494 ft 109 kts 162°
2026-05-06 17:17 50.83722 9.32972 5485 ft 109 kts 163°
2026-05-06 17:17 50.83007 9.33364 5485 ft 109 kts 162°
2026-05-06 17:17 50.82291 9.33757 5491 ft 109 kts 162°
2026-05-06 17:17 50.81573 9.34152 5489 ft 109 kts 162°
2026-05-06 17:18 50.80860 9.34544 5493 ft 109 kts 162°
2026-05-06 17:18 50.80145 9.34937 5492 ft 109 kts 163°
2026-05-06 17:18 50.79427 9.35331 5495 ft 110 kts 162°
2026-05-06 17:18 50.78700 9.35729 5496 ft 111 kts 162°
2026-05-06 17:19 50.77967 9.36131 5487 ft 111 kts 163°
2026-05-06 17:19 50.77237 9.36532 5497 ft 111 kts 163°
2026-05-06 17:19 50.76506 9.36932 5497 ft 111 kts 163°
2026-05-06 17:19 50.75783 9.37328 5483 ft 110 kts 163°
2026-05-06 17:20 50.75064 9.37724 5484 ft 109 kts 163°
2026-05-06 17:20 50.74347 9.38116 5485 ft 109 kts 163°
2026-05-06 17:20 50.73631 9.38508 5491 ft 109 kts 163°
2026-05-06 17:20 50.72909 9.38902 5490 ft 110 kts 163°
2026-05-06 17:21 50.72187 9.39296 5488 ft 110 kts 163°
2026-05-06 17:21 50.71464 9.39691 5484 ft 110 kts 163°
2026-05-06 17:21 50.70744 9.40086 5491 ft 109 kts 163°
2026-05-06 17:21 50.70026 9.40479 5487 ft 109 kts 163°
2026-05-06 17:22 50.69308 9.40873 5484 ft 110 kts 163°
2026-05-06 17:22 50.68585 9.41266 5478 ft 110 kts 163°
2026-05-06 17:22 50.67862 9.41659 5490 ft 110 kts 163°
2026-05-06 17:22 50.67144 9.42054 5491 ft 109 kts 163°
2026-05-06 17:23 50.66423 9.42446 5485 ft 110 kts 164°
2026-05-06 17:23 50.65695 9.42843 5491 ft 111 kts 163°
2026-05-06 17:23 50.64971 9.43237 5491 ft 109 kts 163°
2026-05-06 17:23 50.64251 9.43630 5488 ft 110 kts 164°
2026-05-06 17:24 50.63529 9.44024 5478 ft 110 kts 164°
2026-05-06 17:24 50.62803 9.44418 5484 ft 110 kts 164°
2026-05-06 17:24 50.62078 9.44814 5494 ft 110 kts 164°
2026-05-06 17:24 50.61353 9.45208 5489 ft 110 kts 164°
2026-05-06 17:25 50.60635 9.45599 5494 ft 109 kts 164°
2026-05-06 17:25 50.59913 9.45993 5486 ft 111 kts 165°
2026-05-06 17:25 50.59195 9.46380 5493 ft 110 kts 164°
2026-05-06 17:25 50.58472 9.46775 5491 ft 110 kts 164°
2026-05-06 17:26 50.57752 9.47169 5481 ft 110 kts 165°
2026-05-06 17:26 50.57029 9.47559 5485 ft 109 kts 165°
2026-05-06 17:26 50.56309 9.47950 5492 ft 110 kts 165°
2026-05-06 17:26 50.55590 9.48340 5486 ft 109 kts 165°
2026-05-06 17:27 50.54874 9.48731 5483 ft 109 kts 165°
2026-05-06 17:27 50.54152 9.49122 5491 ft 110 kts 165°
2026-05-06 17:27 50.53432 9.49512 5483 ft 109 kts 165°
2026-05-06 17:27 50.52719 9.49900 5488 ft 108 kts 165°
2026-05-06 17:28 50.52238 9.50162 5494 ft 109 kts 165°
2026-05-06 17:28 50.51527 9.50546 5489 ft 110 kts 165°
2026-05-06 17:28 50.50802 9.50938 5482 ft 110 kts 165°
2026-05-06 17:28 50.50075 9.51331 5492 ft 110 kts 165°
2026-05-06 17:29 50.49356 9.51720 5485 ft 109 kts 165°
2026-05-06 17:29 50.48639 9.52110 5481 ft 109 kts 165°
2026-05-06 17:29 50.47917 9.52498 5489 ft 110 kts 166°
2026-05-06 17:29 50.47191 9.52893 5489 ft 111 kts 166°
2026-05-06 17:30 50.46469 9.53284 5492 ft 110 kts 166°
2026-05-06 17:30 50.45740 9.53678 5480 ft 110 kts 166°
2026-05-06 17:30 50.45025 9.54065 5481 ft 109 kts 165°
2026-05-06 17:30 50.44305 9.54453 5486 ft 110 kts 165°
2026-05-06 17:31 50.43579 9.54845 5491 ft 111 kts 166°
2026-05-06 17:31 50.42849 9.55237 5483 ft 111 kts 166°
2026-05-06 17:31 50.42118 9.55632 5486 ft 111 kts 165°
2026-05-06 17:31 50.41393 9.56025 5488 ft 110 kts 165°
2026-05-06 17:32 50.40667 9.56418 5495 ft 110 kts 166°
2026-05-06 17:32 50.39939 9.56810 5488 ft 111 kts 166°
2026-05-06 17:32 50.39210 9.57201 5483 ft 110 kts 166°
2026-05-06 17:32 50.38487 9.57589 5495 ft 110 kts 166°
2026-05-06 17:33 50.37762 9.57982 5493 ft 110 kts 166°
2026-05-06 17:33 50.37032 9.58375 5490 ft 111 kts 166°
2026-05-06 17:33 50.36302 9.58767 5495 ft 111 kts 166°
2026-05-06 17:33 50.35576 9.59158 5491 ft 110 kts 165°
2026-05-06 17:34 50.34852 9.59548 5494 ft 110 kts 166°
2026-05-06 17:34 50.34128 9.59937 5484 ft 111 kts 166°
2026-05-06 17:34 50.33403 9.60326 5493 ft 110 kts 165°
2026-05-06 17:34 50.32684 9.60715 5488 ft 109 kts 166°
2026-05-06 17:35 50.31962 9.61103 5488 ft 111 kts 165°
2026-05-06 17:35 50.31230 9.61495 5486 ft 111 kts 166°
2026-05-06 17:35 50.30499 9.61886 5485 ft 111 kts 166°
2026-05-06 17:36 50.29037 9.62670 5494 ft 112 kts 165°
2026-05-06 17:36 50.28307 9.63062 5485 ft 110 kts 165°
2026-05-06 17:36 50.27585 9.63451 5492 ft 110 kts 166°
2026-05-06 17:36 50.26858 9.63840 5494 ft 111 kts 166°
2026-05-06 17:37 50.26131 9.64230 5485 ft 110 kts 166°
2026-05-06 17:37 50.25406 9.64619 5485 ft 110 kts 166°
2026-05-06 17:37 50.24679 9.65008 5469 ft 112 kts 166°
2026-05-06 17:37 50.23919 9.65411 5326 ft 120 kts 165°
2026-05-06 17:38 50.23119 9.65838 5175 ft 122 kts 165°
2026-05-06 17:38 50.22296 9.66278 4905 ft 127 kts 165°
2026-05-06 17:38 50.21451 9.66731 4632 ft 129 kts 165°
2026-05-06 17:38 50.20602 9.67186 4354 ft 130 kts 165°
2026-05-06 17:39 50.19748 9.67643 4091 ft 129 kts 166°
2026-05-06 17:39 50.18910 9.68092 3888 ft 127 kts 166°
2026-05-06 17:39 50.18069 9.68542 3681 ft 127 kts 166°
2026-05-06 17:39 50.17230 9.68991 3484 ft 128 kts 166°
2026-05-06 17:40 50.16390 9.69436 3282 ft 128 kts 166°
2026-05-06 17:40 50.15597 9.69865 3086 ft 114 kts 166°
2026-05-06 17:40 50.14875 9.70251 2928 ft 108 kts 167°
2026-05-06 17:40 50.14137 9.70639 2820 ft 117 kts 167°
2026-05-06 17:41 50.13350 9.71058 2723 ft 122 kts 167°
2026-05-06 17:41 50.12539 9.71488 2621 ft 124 kts 167°
2026-05-06 17:41 50.11716 9.71924 2525 ft 125 kts 167°
2026-05-06 17:41 50.10896 9.72363 2422 ft 123 kts 167°
2026-05-06 17:42 50.10084 9.72792 2332 ft 124 kts 166°
2026-05-06 17:42 50.09281 9.73220 2216 ft 120 kts 165°
2026-05-06 17:42 50.08496 9.73645 2123 ft 121 kts 166°
2026-05-06 17:42 50.07695 9.74061 1990 ft 121 kts 167°
2026-05-06 17:43 50.06895 9.74448 1865 ft 119 kts 167°
2026-05-06 17:43 50.06121 9.74821 1791 ft 108 kts 167°
2026-05-06 17:43 50.05462 9.75158 1776 ft 92 kts 167°
2026-05-06 17:43 50.04889 9.75452 1775 ft 82 kts 167°
2026-05-06 17:44 50.04369 9.75745 1778 ft 77 kts 166°
2026-05-06 17:44 50.03870 9.76025 1776 ft 75 kts 166°
2026-05-06 17:44 50.03380 9.76289 1778 ft 74 kts 166°
2026-05-06 17:44 50.02893 9.76539 1772 ft 72 kts 167°
2026-05-06 17:45 50.02439 9.76796 1777 ft 68 kts 166°
2026-05-06 17:45 50.01987 9.77032 1776 ft 69 kts 167°
2026-05-06 17:45 50.01551 9.77263 1777 ft 63 kts 167°
2026-05-06 17:45 50.01149 9.77316 1793 ft 56 kts 194°
2026-05-06 17:46 50.00773 9.77574 1834 ft 67 kts 129°
2026-05-06 17:46 50.00742 9.78330 1699 ft 78 kts 66°
2026-05-06 17:46 50.01112 9.78932 1359 ft 82 kts 26°
2026-05-06 17:46 50.01619 9.79227 1268 ft 63 kts 14°
2026-05-06 17:47 50.02031 9.79472 1149 ft 64 kts
2026-05-06 17:47 50.02417 9.79329 989 ft 61 kts 291°
2026-05-06 17:47 50.02526 9.78704 846 ft 58 kts 281°
2026-05-06 17:47 50.02636 9.78153 759 ft 49 kts 281°
2026-05-06 17:48 50.02724 9.77712 728 ft 37 kts 285°
2026-05-06 17:48 50.02779 9.77387 739 ft 17 kts 296°
2026-05-06 17:48 50.02795 9.77325 744 ft 0 kts 290°
2026-05-06 17:49 50.02808 9.77274 747 ft 8 kts 295°
2026-05-06 17:49 50.02832 9.77180 752 ft 10 kts 288°
2026-05-06 17:49 50.02853 9.77091 760 ft 8 kts 289°
2026-05-06 17:49 50.02857 9.77072 761 ft 0 kts 285°
2026-05-06 17:50 50.02858 9.77069 757 ft 4 kts 310°
2026-05-06 17:50 50.02860 9.77026 763 ft 4 kts 242°
2026-05-06 17:51 50.02847 9.77033 763 ft 0 kts 88°